createdAt,value
2023-04-03T00:02:08.862Z,36.64
2023-04-03T00:04:41.872Z,36.59
2023-04-03T00:07:17.154Z,36.53
2023-04-03T00:09:57.540Z,36.52
2023-04-03T00:12:38.233Z,36.41
2023-04-03T00:15:22.420Z,36.41
2023-04-03T00:18:00.834Z,36.27
2023-04-03T00:21:03.144Z,36.32
2023-04-03T00:23:37.382Z,36.28
2023-04-03T00:26:11.215Z,36.15
2023-04-03T00:28:57.392Z,36.02
2023-04-03T00:31:39.936Z,36.07
2023-04-03T00:34:20.208Z,35.95
2023-04-03T00:36:57.089Z,35.87
2023-04-03T00:39:38.063Z,35.76
2023-04-03T00:42:08.918Z,35.59
2023-04-03T00:44:43.270Z,35.42
2023-04-03T00:47:22.240Z,35.34
2023-04-03T00:50:00.832Z,35.20
2023-04-03T00:52:34.579Z,35.12
2023-04-03T00:55:10.956Z,35.06
2023-04-03T01:02:26.154Z,35.36
2023-04-03T01:05:10.748Z,36.03
2023-04-03T01:07:46.101Z,35.17
2023-04-03T01:10:24.427Z,34.97
2023-04-03T01:12:56.208Z,34.81
2023-04-03T01:15:41.312Z,34.64
2023-04-03T01:18:14.637Z,34.48
2023-04-03T01:21:28.721Z,34.65
2023-04-03T01:24:15.290Z,34.75
2023-04-03T01:26:49.703Z,34.25
2023-04-03T01:29:21.691Z,34.12
2023-04-03T01:31:53.654Z,34.13
2023-04-03T01:34:27.117Z,34.11
2023-04-03T01:37:06.193Z,34.06
2023-04-03T01:39:40.520Z,34.02
2023-04-03T01:42:14.480Z,33.91
2023-04-03T01:44:49.007Z,33.90
2023-04-03T01:47:21.922Z,34.62
2023-04-03T01:49:52.827Z,34.69
2023-04-03T01:52:26.414Z,34.69
2023-04-03T01:55:08.940Z,34.70
2023-04-03T01:57:38.923Z,34.21
2023-04-03T02:00:13.117Z,33.64
2023-04-03T02:02:50.568Z,33.57
2023-04-03T02:05:26.489Z,33.41
2023-04-03T02:08:09.094Z,33.99
2023-04-03T02:10:43.821Z,33.80
2023-04-03T02:13:13.814Z,33.36
2023-04-03T02:15:48.558Z,33.21
2023-04-03T02:18:26.911Z,33.20
2023-04-03T02:21:31.227Z,33.38
2023-04-03T02:24:10.318Z,33.20
2023-04-03T02:26:45.077Z,33.05
2023-04-03T02:29:20.380Z,33.18
2023-04-03T02:35:14.726Z,33.01
2023-04-03T02:37:46.607Z,32.74
2023-04-03T02:40:18.338Z,32.54
2023-04-03T02:42:49.963Z,32.48
2023-04-03T02:45:20.835Z,32.35
2023-04-03T02:47:50.298Z,32.35
2023-04-03T02:50:21.825Z,32.35
2023-04-03T02:52:50.890Z,32.33
2023-04-03T02:55:30.183Z,32.24
2023-04-03T02:58:02.441Z,32.19
2023-04-03T03:00:46.415Z,32.20
2023-04-03T03:03:18.993Z,32.15
2023-04-03T03:06:14.324Z,32.32
2023-04-03T03:08:52.598Z,32.18
2023-04-03T03:11:24.771Z,32.02
2023-04-03T03:13:54.810Z,31.97
2023-04-03T03:16:33.946Z,31.96
2023-04-03T03:19:02.614Z,31.92
2023-04-03T03:21:37.445Z,31.91
2023-04-03T03:24:24.361Z,31.94
2023-04-03T03:26:57.383Z,31.89
2023-04-03T03:29:50.129Z,31.95
2023-04-03T03:32:34.611Z,32.06
2023-04-03T03:35:10.253Z,31.91
2023-04-03T03:37:45.204Z,31.86
2023-04-03T03:40:15.510Z,31.80
2023-04-03T03:42:57.663Z,31.77
2023-04-03T04:15:06.472Z,31.33
2023-04-03T04:45:53.335Z,31.32
2023-04-03T04:49:19.241Z,31.23
2023-04-03T05:00:46.433Z,31.09
2023-04-03T05:14:18.917Z,30.90
2023-04-03T05:18:14.623Z,30.83
2023-04-03T05:21:31.024Z,30.83
2023-04-03T05:30:19.057Z,30.89
2023-04-03T05:38:50.866Z,30.67
2023-04-03T05:47:13.381Z,30.29
2023-04-03T05:56:15.051Z,30.65
2023-04-03T06:00:10.998Z,30.42
2023-04-03T06:08:47.346Z,30.34
2023-04-03T06:15:40.653Z,30.19
2023-04-03T06:20:24.169Z,29.70
2023-04-03T06:28:53.054Z,29.59
2023-04-03T06:38:09.672Z,29.64
2023-04-03T07:31:02.138Z,29.51
2023-04-03T07:39:11.942Z,29.35
2023-04-03T07:42:36.549Z,29.22
2023-04-03T07:46:13.340Z,29.29
2023-04-03T07:49:22.575Z,29.28
2023-04-03T07:52:18.197Z,29.24
2023-04-03T08:10:36.806Z,29.54
2023-04-03T08:13:47.900Z,29.44
2023-04-03T08:17:26.917Z,29.62
2023-04-03T08:20:55.496Z,28.90
2023-04-03T08:24:06.288Z,28.60
2023-04-03T09:00:22.153Z,28.66
2023-04-03T09:20:14.069Z,28.70
2023-04-03T09:22:58.123Z,28.47
2023-04-03T09:26:54.544Z,28.36
2023-04-03T10:18:48.689Z,28.95
2023-04-03T10:21:27.527Z,28.66
2023-04-03T10:24:33.092Z,28.70
2023-04-03T10:27:12.903Z,28.60
2023-04-03T10:30:07.433Z,28.70
2023-04-03T10:33:22.688Z,28.72
2023-04-03T10:36:13.942Z,28.66
2023-04-03T10:39:31.621Z,28.57
2023-04-03T10:42:16.609Z,28.60
2023-04-03T10:45:00.793Z,28.69
2023-04-03T10:47:39.331Z,28.62
2023-04-03T10:50:19.483Z,28.59
2023-04-03T10:53:16.667Z,28.65
2023-04-03T10:56:02.852Z,28.85
2023-04-03T10:59:22.082Z,28.66
2023-04-03T11:01:59.531Z,28.49
2023-04-03T11:04:36.451Z,28.39
2023-04-03T11:07:38.339Z,28.49
2023-04-03T11:10:38.753Z,28.56
2023-04-03T11:14:18.279Z,28.77
2023-04-03T11:17:26.826Z,28.63
2023-04-03T11:20:34.714Z,28.98
2023-04-03T11:27:10.496Z,29.65
2023-04-03T11:29:44.460Z,29.52
2023-04-03T11:33:07.273Z,29.64
2023-04-03T11:35:54.721Z,29.34
2023-04-03T11:38:45.431Z,28.87
2023-04-03T11:43:04.708Z,28.87
2023-04-03T11:45:52.379Z,28.86
2023-04-03T11:49:03.257Z,29.14
2023-04-03T11:51:43.044Z,30.04
2023-04-03T11:55:22.140Z,30.34
2023-04-03T11:58:03.572Z,30.29
2023-04-03T12:00:56.802Z,30.76
2023-04-03T12:03:31.697Z,30.83
2023-04-03T12:06:08.994Z,31.83
2023-04-03T12:08:44.416Z,31.21
2023-04-03T12:11:33.113Z,31.13
2023-04-03T12:14:03.065Z,30.59
2023-04-03T12:16:43.289Z,30.18
2023-04-03T12:19:16.472Z,30.14
2023-04-03T12:21:52.487Z,30.22
2023-04-03T12:24:26.257Z,30.48
2023-04-03T12:27:38.140Z,31.59
2023-04-03T12:30:20.096Z,31.05
2023-04-03T12:33:12.716Z,31.26
2023-04-03T12:36:26.437Z,31.63
2023-04-03T12:39:37.262Z,31.80
2023-04-03T12:42:41.115Z,33.02
2023-04-03T12:45:29.400Z,32.32
2023-04-03T12:47:59.526Z,32.27
2023-04-03T12:50:36.682Z,32.43
2023-04-03T12:53:17.854Z,32.73
2023-04-03T12:55:48.569Z,32.85
2023-04-03T12:58:26.936Z,33.17
2023-04-03T13:01:29.144Z,33.82
2023-04-03T13:04:01.812Z,33.76
2023-04-03T13:06:44.858Z,34.98
2023-04-03T13:09:56.981Z,34.70
2023-04-03T13:12:27.080Z,34.85
2023-04-03T13:15:01.701Z,34.97
2023-04-03T13:17:34.024Z,35.17
2023-04-03T13:20:35.102Z,36.01
2023-04-03T13:23:26.141Z,35.86
2023-04-03T13:26:02.439Z,36.17
2023-04-03T13:28:34.858Z,36.28
2023-04-03T13:31:19.591Z,36.36
2023-04-03T13:34:01.528Z,36.65
2023-04-03T13:36:34.572Z,36.87
2023-04-03T13:39:39.082Z,37.22
2023-04-03T13:42:25.993Z,37.48
2023-04-03T13:45:26.057Z,37.51
2023-04-03T13:48:20.277Z,37.52
2023-04-03T13:51:14.518Z,37.89
2023-04-03T13:54:15.090Z,38.00
2023-04-03T13:56:49.691Z,37.97
2023-04-03T13:59:36.903Z,38.85
2023-04-03T14:02:05.719Z,38.37
2023-04-03T14:04:49.785Z,38.45
2023-04-03T14:07:21.799Z,38.34
2023-04-03T14:09:51.137Z,38.35
2023-04-03T14:12:37.865Z,38.49
2023-04-03T14:15:27.763Z,38.52
2023-04-03T14:18:07.859Z,38.72
2023-04-03T14:20:38.581Z,38.62
2023-04-03T14:23:08.411Z,38.62
2023-04-03T14:25:38.154Z,38.64
2023-04-03T14:28:20.438Z,38.84
2023-04-03T14:30:52.572Z,38.96
2023-04-03T14:33:23.827Z,39.06
2023-04-03T14:35:57.759Z,39.00
2023-04-03T14:38:32.874Z,38.95
2023-04-03T14:41:13.617Z,38.82
2023-04-03T14:43:47.097Z,39.02
2023-04-03T14:46:18.403Z,39.13
2023-04-03T14:48:47.604Z,39.19
2023-04-03T14:51:18.245Z,39.25
2023-04-03T14:53:48.456Z,39.36
2023-04-03T14:56:35.304Z,39.40
2023-04-03T14:59:07.626Z,39.54
2023-04-03T15:01:36.855Z,39.54
2023-04-03T15:04:22.991Z,39.90
2023-04-03T15:06:54.680Z,39.78
2023-04-03T15:09:31.312Z,39.86
2023-04-03T15:12:02.845Z,39.98
2023-04-03T15:14:36.894Z,40.24
2023-04-03T15:17:22.825Z,40.43
2023-04-03T15:19:53.000Z,40.51
2023-04-03T15:22:22.296Z,40.53
2023-04-03T15:24:57.361Z,40.54
2023-04-03T15:27:38.448Z,40.41
2023-04-03T15:30:15.513Z,40.49
2023-04-03T15:32:45.356Z,40.61
2023-04-03T15:35:14.998Z,40.59
2023-04-03T15:37:45.131Z,40.32
2023-04-03T15:40:14.071Z,40.16
2023-04-03T15:42:43.715Z,40.76
2023-04-03T15:45:16.843Z,40.75
2023-04-03T15:47:46.406Z,40.61
2023-04-03T15:50:15.022Z,40.69
2023-04-03T15:52:45.161Z,40.96
2023-04-03T15:55:14.380Z,41.02
2023-04-03T15:57:49.677Z,41.78
2023-04-03T16:00:19.422Z,41.96
2023-04-03T16:02:51.383Z,42.05
2023-04-03T16:05:22.573Z,42.22
2023-04-03T16:07:53.875Z,42.34
2023-04-03T16:10:23.219Z,42.36
2023-04-03T16:12:54.440Z,42.38
2023-04-03T16:15:23.277Z,42.37
2023-04-03T16:17:53.428Z,42.54
2023-04-03T16:20:23.254Z,42.75
2023-04-03T16:22:53.837Z,42.98
2023-04-03T16:25:22.644Z,43.10
2023-04-03T16:27:51.319Z,43.25
2023-04-03T16:30:22.132Z,43.37
2023-04-03T16:32:52.032Z,43.40
2023-04-03T16:35:20.946Z,43.44
2023-04-03T16:37:49.882Z,43.48
2023-04-03T16:40:18.934Z,44.04
2023-04-03T16:42:49.094Z,43.79
2023-04-03T16:45:18.864Z,43.85
2023-04-03T16:47:50.489Z,43.98
2023-04-03T16:50:19.047Z,44.12
2023-04-03T16:52:48.756Z,44.07
2023-04-03T16:55:18.574Z,44.13
2023-04-03T16:57:48.413Z,44.26
2023-04-03T17:00:18.379Z,44.32
2023-04-03T17:02:48.821Z,44.44
2023-04-03T17:05:18.232Z,44.45
2023-04-03T17:07:47.051Z,44.70
2023-04-03T17:10:17.851Z,44.77
2023-04-03T17:12:46.696Z,44.82
2023-04-03T17:15:14.880Z,44.96
2023-04-03T17:17:44.965Z,44.95
2023-04-03T17:20:14.480Z,45.03
2023-04-03T17:22:42.872Z,45.27
2023-04-03T17:25:13.046Z,45.21
2023-04-03T17:27:42.720Z,45.04
2023-04-03T17:30:12.580Z,45.31
2023-04-03T17:32:42.114Z,45.64
2023-04-03T17:35:12.659Z,45.77
2023-04-03T17:37:41.876Z,45.85
2023-04-03T17:40:10.985Z,45.92
2023-04-03T17:42:41.115Z,46.04
2023-04-03T17:45:10.734Z,46.24
2023-04-03T17:47:38.992Z,46.45
2023-04-03T17:50:10.076Z,46.29
2023-04-03T17:52:38.619Z,46.75
2023-04-03T17:55:55.352Z,47.40
2023-04-03T17:58:24.700Z,47.20
2023-04-03T18:00:54.765Z,47.13
2023-04-03T18:03:23.435Z,47.16
2023-04-03T18:05:55.459Z,47.20
2023-04-03T18:08:26.482Z,47.22
2023-04-03T18:10:55.208Z,47.27
2023-04-03T18:13:25.090Z,47.23
2023-04-03T18:15:54.358Z,47.35
2023-04-03T18:18:23.295Z,47.32
2023-04-03T18:20:53.811Z,47.50
2023-04-03T18:23:23.727Z,47.57
2023-04-03T18:25:53.345Z,47.63
2023-04-03T18:28:23.275Z,47.82
2023-04-03T18:30:52.799Z,47.80
2023-04-03T18:33:21.953Z,47.69
2023-04-03T18:35:50.832Z,47.78
2023-04-03T18:38:19.224Z,47.83
2023-04-03T18:40:49.808Z,47.70
2023-04-03T18:43:18.993Z,47.77
2023-04-03T18:45:48.806Z,47.79
2023-04-03T18:48:17.999Z,47.80
2023-04-03T18:50:47.189Z,47.96
2023-04-03T18:53:17.900Z,48.20
2023-04-03T19:04:19.416Z,49.78
2023-04-03T19:06:49.007Z,48.57
2023-04-03T19:09:18.104Z,48.47
2023-04-03T19:11:47.139Z,48.19
2023-04-03T19:14:17.268Z,47.66
2023-04-03T19:16:46.458Z,48.42
2023-04-03T19:19:15.240Z,48.37
2023-04-03T19:26:16.335Z,48.20
2023-04-03T19:28:44.775Z,47.54
2023-04-03T19:31:15.839Z,47.39
2023-04-03T19:33:46.153Z,47.41
2023-04-03T19:36:16.134Z,47.38
2023-04-03T19:38:45.321Z,47.51
2023-04-03T19:41:20.655Z,48.22
2023-04-03T19:43:51.364Z,48.73
2023-04-03T19:46:22.840Z,48.70
2023-04-03T19:48:52.734Z,48.67
2023-04-03T19:51:21.257Z,49.03
2023-04-03T19:53:50.427Z,49.21
2023-04-03T19:56:21.447Z,49.36
2023-04-03T19:59:00.091Z,49.47
2023-04-03T20:01:29.687Z,49.60
2023-04-03T20:03:58.923Z,49.31
2023-04-03T20:06:29.862Z,49.20
2023-04-03T20:08:59.086Z,49.01
2023-04-03T20:11:29.218Z,48.43
2023-04-03T20:13:58.795Z,48.13
2023-04-03T20:16:29.484Z,48.01
2023-04-03T20:18:59.429Z,48.77
2023-04-03T20:21:33.659Z,48.32
2023-04-03T20:24:06.318Z,49.36
2023-04-03T20:26:37.944Z,48.62
2023-04-03T20:29:06.713Z,48.66
2023-04-03T20:31:35.512Z,48.08
2023-04-03T20:34:04.856Z,48.70
2023-04-03T20:36:33.863Z,49.07
2023-04-03T20:39:02.747Z,49.02
2023-04-03T20:41:34.298Z,49.25
2023-04-03T20:44:03.204Z,49.30
2023-04-03T20:46:48.988Z,48.45
2023-04-03T20:49:21.768Z,48.24
2023-04-03T20:51:51.721Z,48.09
2023-04-03T20:54:20.960Z,48.93
2023-04-03T20:56:50.356Z,49.03
2023-04-03T20:59:19.393Z,48.89
2023-04-03T21:01:54.494Z,48.72
2023-04-03T21:04:37.990Z,48.70
2023-04-03T21:07:44.204Z,49.24
2023-04-03T21:10:50.221Z,48.65
2023-04-03T21:13:57.134Z,49.19
2023-04-03T21:16:27.685Z,48.96
2023-04-03T21:19:04.772Z,49.00
2023-04-03T21:21:37.045Z,48.33
2023-04-03T21:24:10.441Z,48.17
2023-04-03T21:26:43.558Z,47.93
2023-04-03T21:29:20.476Z,47.89
2023-04-03T21:32:00.833Z,48.88
2023-04-03T21:34:32.453Z,47.96
2023-04-03T21:37:10.661Z,47.86
2023-04-03T21:39:39.354Z,48.55
2023-04-03T21:42:08.429Z,48.75
2023-04-03T21:44:36.854Z,49.57
2023-04-03T21:47:05.980Z,49.91
2023-04-03T21:49:35.075Z,49.54
2023-04-03T21:52:04.545Z,53.10
2023-04-03T21:54:34.032Z,52.90
2023-04-03T21:57:03.638Z,49.38
2023-04-03T21:59:32.789Z,48.54
2023-04-03T22:02:03.052Z,48.58
2023-04-03T22:04:32.053Z,48.43
2023-04-03T22:07:01.044Z,48.37
2023-04-03T22:09:30.422Z,48.33
2023-04-03T22:12:00.202Z,48.24
2023-04-03T22:17:31.942Z,48.68
2023-04-03T22:20:01.795Z,48.60
2023-04-03T22:22:31.327Z,48.54
2023-04-03T22:25:02.385Z,48.21
2023-04-03T22:27:32.817Z,48.36
2023-04-03T22:30:01.877Z,48.22
2023-04-03T22:32:31.156Z,48.17
2023-04-03T22:35:00.887Z,47.96
2023-04-03T22:37:30.160Z,47.99
2023-04-03T22:39:59.271Z,47.91
2023-04-03T22:42:28.894Z,47.68
2023-04-03T22:44:57.631Z,47.86
2023-04-03T22:47:27.135Z,47.69
2023-04-03T22:49:58.201Z,47.70
2023-04-03T22:52:27.128Z,47.73
2023-04-03T22:54:59.519Z,47.77
2023-04-03T22:57:32.632Z,47.70
2023-04-03T23:00:02.019Z,47.60
2023-04-03T23:02:33.588Z,47.63
2023-04-03T23:05:02.395Z,47.55
2023-04-03T23:07:32.592Z,47.55
2023-04-03T23:10:01.660Z,47.57
2023-04-03T23:12:31.032Z,47.66
2023-04-03T23:15:01.085Z,47.55
2023-04-03T23:17:31.045Z,47.43
2023-04-03T23:20:01.905Z,47.30
2023-04-03T23:22:32.694Z,47.39
2023-04-03T23:25:01.797Z,47.37
2023-04-03T23:27:31.590Z,47.31
2023-04-03T23:30:02.374Z,47.32
2023-04-03T23:32:31.211Z,47.28
2023-04-03T23:35:01.084Z,47.53
2023-04-03T23:37:30.557Z,47.02
2023-04-03T23:39:59.271Z,47.09
2023-04-03T23:42:30.740Z,47.10
2023-04-03T23:45:01.656Z,46.78
2023-04-03T23:47:31.046Z,47.08
2023-04-03T23:50:00.927Z,47.21
2023-04-03T23:52:30.007Z,47.17
2023-04-03T23:54:59.014Z,47.23
2023-04-03T23:57:28.704Z,47.00
2023-04-03T23:59:56.998Z,46.99
